createdAt,value
2022-08-12T00:00:30.244Z,9.863909
2022-08-12T00:02:02.905Z,9.863909
2022-08-12T00:02:31.244Z,9.863909
2022-08-12T00:03:30.277Z,9.863909
2022-08-12T00:04:30.201Z,9.863909
2022-08-12T00:05:30.223Z,9.863909
2022-08-12T00:06:30.180Z,9.863909
2022-08-12T00:07:31.194Z,9.863909
2022-08-12T00:08:35.844Z,9.863909
2022-08-12T00:09:31.169Z,9.863909
2022-08-12T00:10:30.164Z,9.863909
2022-08-12T00:11:30.154Z,9.863909
2022-08-12T00:12:30.192Z,9.863909
2022-08-12T00:13:30.128Z,9.863909
2022-08-12T00:14:30.140Z,9.863909
2022-08-12T00:15:30.109Z,9.863909
2022-08-12T00:16:30.120Z,9.863909
2022-08-12T00:17:30.099Z,9.863909
2022-08-12T00:18:30.121Z,9.863909
2022-08-12T00:19:30.069Z,9.863909
2022-08-12T00:20:30.067Z,9.863909
2022-08-12T00:21:30.108Z,9.863909
2022-08-12T00:22:30.117Z,9.863909
2022-08-12T00:23:30.035Z,9.863909
2022-08-12T00:24:30.018Z,9.863909
2022-08-12T00:25:51.250Z,9.863909
2022-08-12T00:26:31.016Z,9.863909
2022-08-12T00:27:44.040Z,9.863909
2022-08-12T00:28:31.047Z,9.863909
2022-08-12T00:29:29.992Z,9.863909
2022-08-12T00:30:29.972Z,9.863909
2022-08-12T00:31:29.973Z,9.863909
2022-08-12T00:32:54.287Z,9.863909
2022-08-12T00:33:36.445Z,9.863909
2022-08-12T00:34:30.931Z,9.863909
2022-08-12T00:35:36.420Z,9.863909
2022-08-12T00:36:34.850Z,9.863909
2022-08-12T00:37:30.918Z,9.863909
2022-08-12T00:38:29.882Z,9.863909
2022-08-12T00:39:30.917Z,9.863909
2022-08-12T00:40:29.912Z,9.863909
2022-08-12T00:41:29.885Z,9.863909
2022-08-12T00:42:29.875Z,9.863909
2022-08-12T00:43:29.832Z,9.863909
2022-08-12T00:44:29.867Z,9.863909
2022-08-12T00:45:29.837Z,9.863909
2022-08-12T00:46:29.812Z,9.863909
2022-08-12T00:47:29.835Z,9.863909
2022-08-12T00:48:29.837Z,9.863909
2022-08-12T00:49:29.799Z,9.863909
2022-08-12T00:50:29.817Z,9.863909
2022-08-12T00:51:29.779Z,9.863909
2022-08-12T00:52:29.782Z,9.863909
2022-08-12T00:53:29.790Z,9.863909
2022-08-12T00:54:29.743Z,9.863909
2022-08-12T00:55:29.731Z,9.863909
2022-08-12T00:56:29.722Z,9.863909
2022-08-12T00:57:29.730Z,9.863909
2022-08-12T00:58:29.717Z,9.863909
2022-08-12T00:59:29.687Z,9.762877
2022-08-12T01:00:29.704Z,9.762837
2022-08-12T01:01:29.694Z,9.762808
2022-08-12T01:02:30.723Z,9.763031
2022-08-12T01:03:30.657Z,9.762819
2022-08-12T01:04:29.633Z,9.762810
2022-08-12T01:05:29.630Z,9.762852
2022-08-12T01:06:29.619Z,9.762906
2022-08-12T01:07:29.627Z,9.762756
2022-08-12T01:08:29.619Z,9.762748
2022-08-12T01:09:29.589Z,9.762795
2022-08-12T01:10:32.650Z,9.762753
2022-08-12T01:11:29.581Z,9.762845
2022-08-12T01:12:29.590Z,9.762883
2022-08-12T01:13:29.583Z,9.762964
2022-08-12T01:14:29.571Z,9.762897
2022-08-12T01:15:29.554Z,9.763497
2022-08-12T01:16:29.538Z,9.763497
2022-08-12T01:17:29.559Z,9.762901
2022-08-12T01:18:29.513Z,9.762625
2022-08-12T01:19:29.503Z,9.762466
2022-08-12T01:20:29.513Z,9.762216
2022-08-12T01:21:29.485Z,9.762840
2022-08-12T01:22:29.464Z,9.762819
2022-08-12T01:23:29.462Z,9.762755
2022-08-12T01:24:31.532Z,9.762754
2022-08-12T01:25:29.452Z,9.762741
2022-08-12T01:26:29.454Z,9.762718
2022-08-12T01:27:29.405Z,9.762762
2022-08-12T01:28:29.425Z,9.762828
2022-08-12T01:29:32.584Z,9.762899
2022-08-12T01:30:29.434Z,9.762876
2022-08-12T01:31:29.472Z,9.762908
2022-08-12T01:32:29.365Z,9.762711
2022-08-12T01:33:29.373Z,9.762700
2022-08-12T01:34:36.843Z,9.762829
2022-08-12T01:35:30.349Z,9.762898
2022-08-12T01:36:29.334Z,9.762716
2022-08-12T01:37:29.284Z,9.762806
2022-08-12T01:38:29.574Z,9.762773
2022-08-12T01:39:29.381Z,9.762769
2022-08-12T01:40:33.564Z,9.762738
2022-08-12T01:41:30.295Z,9.762712
2022-08-12T01:42:29.280Z,9.762710
2022-08-12T01:43:29.285Z,9.762806
2022-08-12T01:44:29.249Z,9.762677
2022-08-12T01:45:29.264Z,9.762694
2022-08-12T01:46:30.244Z,9.762761
2022-08-12T01:47:29.239Z,9.762736
2022-08-12T01:48:29.228Z,9.762765
2022-08-12T01:49:29.222Z,9.762755
2022-08-12T01:50:29.189Z,9.762870
2022-08-12T01:52:20.996Z,9.762689
2022-08-12T01:52:30.176Z,9.762672
2022-08-12T01:53:29.187Z,9.762672
2022-08-12T01:54:30.148Z,9.762777
2022-08-12T01:55:29.128Z,9.762692
2022-08-12T01:56:29.149Z,9.762678
2022-08-12T01:57:59.822Z,9.763437
2022-08-12T01:58:30.150Z,9.764009
2022-08-12T01:59:29.102Z,9.760568
2022-08-12T02:00:36.022Z,9.762546
2022-08-12T02:01:30.145Z,9.762712
2022-08-12T02:02:29.076Z,9.762591
2022-08-12T02:03:29.076Z,9.762694
2022-08-12T02:04:29.075Z,9.762695
2022-08-12T02:05:29.045Z,9.762697
2022-08-12T02:06:29.047Z,9.762655
2022-08-12T02:07:29.024Z,9.762739
2022-08-12T02:08:29.048Z,9.763058
2022-08-12T02:09:28.995Z,9.763002
2022-08-12T02:10:49.302Z,9.762891
2022-08-12T02:11:29.980Z,9.762979
2022-08-12T02:12:31.378Z,9.762788
2022-08-12T02:13:42.086Z,9.762812
2022-08-12T02:14:29.953Z,9.763027
2022-08-12T02:15:28.935Z,9.762632
2022-08-12T02:16:28.948Z,9.762603
2022-08-12T02:17:55.180Z,9.762704
2022-08-12T02:18:29.933Z,9.762503
2022-08-12T02:19:28.921Z,9.762568
2022-08-12T02:20:35.232Z,9.762642
2022-08-12T02:21:29.869Z,9.762840
2022-08-12T02:22:28.910Z,9.762840
2022-08-12T02:23:28.893Z,9.762566
2022-08-12T02:24:28.870Z,9.762772
2022-08-12T02:25:28.838Z,9.763204
2022-08-12T02:26:28.850Z,9.763165
2022-08-12T02:27:28.824Z,9.762730
2022-08-12T02:28:28.817Z,9.762980
2022-08-12T02:29:28.825Z,9.762715
2022-08-12T02:30:41.698Z,9.762542
2022-08-12T02:31:29.800Z,9.762468
2022-08-12T02:32:28.778Z,9.762699
2022-08-12T02:33:28.774Z,9.763453
2022-08-12T02:34:28.787Z,9.762536
2022-08-12T02:35:28.772Z,9.762698
2022-08-12T02:36:28.772Z,9.763308
2022-08-12T02:37:28.749Z,9.763200
2022-08-12T02:38:28.747Z,9.762918
2022-08-12T02:39:28.740Z,9.761827
2022-08-12T02:40:29.718Z,9.762652
2022-08-12T02:41:28.693Z,9.762591
2022-08-12T02:42:28.701Z,9.762560
2022-08-12T02:43:28.681Z,9.762280
2022-08-12T02:44:28.688Z,9.762758
2022-08-12T02:45:28.643Z,9.762776
2022-08-12T02:46:28.636Z,9.762630
2022-08-12T02:47:59.230Z,9.762663
2022-08-12T02:48:29.660Z,9.762066
2022-08-12T02:49:28.628Z,9.762367
2022-08-12T02:50:28.604Z,9.762379
2022-08-12T02:51:28.582Z,9.762445
2022-08-12T02:52:28.587Z,9.762658
2022-08-12T02:53:28.613Z,9.762509
2022-08-12T02:54:28.566Z,9.762387
2022-08-12T02:55:34.305Z,9.765835
2022-08-12T02:56:29.585Z,9.765835
2022-08-12T02:57:28.522Z,9.761162
2022-08-12T02:58:32.890Z,9.744128
2022-08-12T02:59:29.512Z,9.744128
2022-08-12T03:00:28.521Z,9.744128
2022-08-12T03:01:28.617Z,9.744128
2022-08-12T03:02:28.472Z,9.762479
2022-08-12T03:03:28.520Z,9.762572
2022-08-12T03:04:28.497Z,9.762728
2022-08-12T03:05:28.457Z,9.762527
2022-08-12T03:06:28.471Z,9.762403
2022-08-12T03:07:39.691Z,9.762157
2022-08-12T03:08:32.409Z,9.762157
2022-08-12T03:09:29.961Z,9.762157
2022-08-12T03:10:37.694Z,9.762843
2022-08-12T03:11:29.392Z,9.762670
2022-08-12T03:12:33.694Z,9.762816
2022-08-12T03:13:29.379Z,9.762810
2022-08-12T03:14:28.373Z,9.762784
2022-08-12T03:15:28.347Z,9.762662
2022-08-12T03:16:28.338Z,9.763434
2022-08-12T03:17:28.349Z,9.763472
2022-08-12T03:18:28.935Z,9.762563
2022-08-12T03:19:28.327Z,9.762626
2022-08-12T03:20:28.628Z,9.762567
2022-08-12T03:21:52.817Z,9.762799
2022-08-12T03:22:29.259Z,9.762731
2022-08-12T03:23:30.301Z,9.762606
2022-08-12T03:24:28.272Z,9.762536
2022-08-12T03:25:28.259Z,9.762974
2022-08-12T03:26:28.246Z,9.764464
2022-08-12T03:27:28.202Z,9.775117
2022-08-12T03:28:28.208Z,9.776282
2022-08-12T03:29:28.243Z,9.776282
2022-08-12T03:30:28.190Z,9.776282
2022-08-12T03:31:28.185Z,9.776282
2022-08-12T03:32:36.221Z,9.776282
2022-08-12T03:33:29.154Z,9.776282
2022-08-12T03:34:29.169Z,9.776282
2022-08-12T03:35:40.066Z,9.776282
2022-08-12T03:36:29.143Z,9.776282
2022-08-12T03:37:28.151Z,9.776282
2022-08-12T03:38:28.161Z,9.776282
2022-08-12T03:39:36.475Z,9.776282
2022-08-12T03:40:29.133Z,9.776282
2022-08-12T03:41:28.109Z,9.776282
2022-08-12T03:42:28.286Z,9.776282
2022-08-12T03:43:28.085Z,9.776282
2022-08-12T03:44:28.075Z,9.776282
2022-08-12T03:45:28.047Z,9.776282
2022-08-12T03:46:28.056Z,9.776282
2022-08-12T03:47:28.035Z,9.776282
2022-08-12T03:48:28.017Z,9.776282
2022-08-12T03:49:28.039Z,9.776282
2022-08-12T03:50:27.999Z,9.776282
2022-08-12T03:51:28.006Z,9.776282
2022-08-12T03:52:27.977Z,9.776282
2022-08-12T03:53:27.970Z,9.776282
2022-08-12T03:54:27.975Z,9.776282
2022-08-12T03:55:27.956Z,9.776282
2022-08-12T03:56:27.942Z,9.776282
2022-08-12T03:57:27.929Z,9.776282
2022-08-12T03:58:27.928Z,9.776282
2022-08-12T03:59:27.938Z,9.776282
2022-08-12T04:00:27.883Z,9.776282
2022-08-12T04:01:27.966Z,9.776282
2022-08-12T04:02:27.909Z,9.776282
2022-08-12T04:03:27.882Z,9.776282
2022-08-12T04:04:27.896Z,9.776282
2022-08-12T04:05:54.618Z,9.776282
2022-08-12T04:06:35.287Z,9.776282
2022-08-12T04:07:28.846Z,9.776282
2022-08-12T04:08:27.813Z,9.776282
2022-08-12T04:09:27.812Z,9.776282
2022-08-12T04:10:27.807Z,9.776282
2022-08-12T04:11:32.041Z,9.776282
2022-08-12T04:12:32.442Z,9.776282
2022-08-12T04:13:31.877Z,9.776282
2022-08-12T04:14:27.763Z,9.776282
2022-08-12T04:15:33.425Z,9.776282
2022-08-12T04:16:32.995Z,9.776282
2022-08-12T04:17:31.763Z,9.776282
2022-08-12T04:18:30.169Z,9.776282
2022-08-12T04:19:30.188Z,9.776282
2022-08-12T04:20:30.433Z,9.776282
2022-08-12T04:21:32.078Z,9.776282
2022-08-12T04:22:27.687Z,9.776282
2022-08-12T04:23:27.689Z,9.776282
2022-08-12T04:24:27.699Z,9.776282
2022-08-12T04:25:27.671Z,9.776282
2022-08-12T04:26:27.675Z,9.776282
2022-08-12T04:27:27.640Z,9.776282
2022-08-12T04:28:27.625Z,9.776282
2022-08-12T04:30:29.263Z,9.776282
2022-08-12T04:30:32.063Z,9.776282
2022-08-12T04:31:28.589Z,9.776282
2022-08-12T04:32:27.597Z,9.776282
2022-08-12T04:33:27.571Z,9.776282
2022-08-12T04:34:27.587Z,9.776282
2022-08-12T04:35:27.574Z,9.776282
2022-08-12T04:36:27.541Z,9.776282
2022-08-12T04:37:27.547Z,9.776282
2022-08-12T04:38:27.556Z,9.776282
2022-08-12T04:39:27.553Z,9.776282
2022-08-12T04:40:28.438Z,9.776282
2022-08-12T04:41:27.498Z,9.776282
2022-08-12T04:42:27.477Z,9.776282
2022-08-12T04:44:00.725Z,9.776282
2022-08-12T04:44:28.478Z,9.776282
2022-08-12T04:45:27.450Z,9.776282
2022-08-12T04:46:33.548Z,9.776282
2022-08-12T04:47:29.583Z,9.776282
2022-08-12T04:48:27.524Z,9.776282
2022-08-12T04:49:28.836Z,9.776282
2022-08-12T04:50:34.913Z,9.776282
2022-08-12T04:51:28.359Z,9.776282
2022-08-12T04:52:30.655Z,9.776282
2022-08-12T04:53:28.353Z,9.776282
2022-08-12T04:54:27.379Z,9.776282
2022-08-12T04:55:27.361Z,9.776282
2022-08-12T04:56:27.368Z,9.776282
2022-08-12T04:57:28.308Z,9.776282
2022-08-12T04:58:29.342Z,9.776282
2022-08-12T04:59:27.314Z,9.776282
2022-08-12T05:00:27.288Z,9.776282
2022-08-12T05:01:28.297Z,9.776282
2022-08-12T05:02:27.301Z,9.776282
2022-08-12T05:03:27.259Z,9.776282
2022-08-12T05:04:27.276Z,9.776282
2022-08-12T05:05:27.272Z,9.776282
2022-08-12T05:06:27.262Z,9.776282
2022-08-12T05:07:27.241Z,9.776282
2022-08-12T05:08:27.209Z,9.776282
2022-08-12T05:09:27.213Z,9.776282
2022-08-12T05:10:33.859Z,9.776282
2022-08-12T05:11:28.180Z,9.776282
2022-08-12T05:12:27.207Z,9.776282
2022-08-12T05:13:27.163Z,9.776282
2022-08-12T05:14:27.175Z,9.776282
2022-08-12T05:15:29.135Z,9.776282
2022-08-12T05:16:30.940Z,9.776282
2022-08-12T05:17:28.486Z,9.776282
2022-08-12T05:18:29.264Z,9.776282
2022-08-12T05:19:27.102Z,9.776282
2022-08-12T05:20:27.096Z,9.776282
2022-08-12T05:21:27.087Z,9.776282
2022-08-12T05:22:27.082Z,9.776282
2022-08-12T05:23:27.054Z,9.776282
2022-08-12T05:24:27.051Z,9.776282
2022-08-12T05:25:27.039Z,9.776282
2022-08-12T05:26:27.035Z,9.776282
2022-08-12T05:27:27.044Z,9.776282
2022-08-12T05:28:27.353Z,9.776282
2022-08-12T05:30:07.906Z,9.776282
2022-08-12T05:30:27.996Z,9.776282
2022-08-12T05:31:40.363Z,9.776282
2022-08-12T05:32:27.972Z,9.776282
2022-08-12T05:33:26.927Z,9.776282
2022-08-12T05:34:26.959Z,9.776282
2022-08-12T05:35:26.935Z,9.776282
2022-08-12T05:36:26.928Z,9.776282
2022-08-12T05:37:26.923Z,9.776282
2022-08-12T05:38:26.900Z,9.776282
2022-08-12T05:39:26.961Z,9.776282
2022-08-12T05:40:26.863Z,9.776282
2022-08-12T05:41:26.848Z,9.776282
2022-08-12T05:42:31.088Z,9.776282
2022-08-12T05:43:27.841Z,9.776282
2022-08-12T05:44:26.830Z,9.776282
2022-08-12T05:45:26.857Z,9.776282
2022-08-12T05:46:26.869Z,9.776282
2022-08-12T05:47:44.851Z,9.776282
2022-08-12T05:48:27.802Z,9.776282
2022-08-12T05:49:26.785Z,9.776282
2022-08-12T05:50:26.793Z,9.776282
2022-08-12T05:51:40.673Z,9.776282
2022-08-12T05:52:27.913Z,9.776282
2022-08-12T05:53:26.778Z,9.776282
2022-08-12T05:54:41.115Z,9.776282
2022-08-12T05:55:31.330Z,9.776282
2022-08-12T05:56:27.710Z,9.776282
2022-08-12T05:57:26.700Z,9.776282
2022-08-12T05:58:26.709Z,9.776282
2022-08-12T05:59:26.701Z,9.776282
2022-08-12T06:00:26.680Z,9.776282
2022-08-12T06:02:11.981Z,9.776282
2022-08-12T06:02:28.213Z,9.776282
2022-08-12T06:03:26.631Z,9.776282
2022-08-12T06:04:26.616Z,9.776282
2022-08-12T06:05:26.606Z,9.776282
2022-08-12T06:06:27.817Z,9.776282
2022-08-12T06:08:00.311Z,9.776282
2022-08-12T06:08:27.567Z,9.776282
2022-08-12T06:09:26.553Z,9.776282
2022-08-12T06:10:32.401Z,9.776282
2022-08-12T06:11:27.515Z,9.776282
2022-08-12T06:12:27.517Z,9.776282
2022-08-12T06:13:52.552Z,9.776282
2022-08-12T06:14:27.492Z,9.776282
2022-08-12T06:15:26.500Z,9.776282
2022-08-12T06:16:26.549Z,9.776282
2022-08-12T06:17:26.483Z,9.776282
2022-08-12T06:18:29.788Z,9.776282
2022-08-12T06:20:22.846Z,9.776282
2022-08-12T06:20:30.212Z,9.776282
2022-08-12T06:21:27.465Z,9.776282
2022-08-12T06:22:36.765Z,9.776282
2022-08-12T06:23:26.431Z,9.776282
2022-08-12T06:24:26.445Z,9.776282
2022-08-12T06:25:26.515Z,9.776282
2022-08-12T06:26:26.407Z,9.776282
2022-08-12T06:28:10.446Z,9.776282
2022-08-12T06:28:27.382Z,9.776282
2022-08-12T06:30:09.343Z,9.776282
2022-08-12T06:30:36.838Z,9.776282
2022-08-12T06:31:28.453Z,9.776282
2022-08-12T06:32:27.701Z,9.776282
2022-08-12T06:33:55.346Z,9.776282
2022-08-12T06:35:26.181Z,9.776282
2022-08-12T06:35:48.209Z,9.762753
2022-08-12T06:36:29.882Z,9.762670
2022-08-12T06:37:26.316Z,9.762422
2022-08-12T06:38:26.302Z,9.762409
2022-08-12T11:20:20.740Z,9.762782
2022-08-12T11:21:15.791Z,9.762876
2022-08-12T11:22:12.953Z,9.762951
2022-08-12T11:23:26.031Z,9.762855
2022-08-12T11:24:30.648Z,9.762884
2022-08-12T11:25:16.628Z,9.762945
2022-08-12T11:26:12.902Z,9.762945
2022-08-12T11:27:26.270Z,9.762945
2022-08-12T11:28:20.606Z,9.762929
2022-08-12T11:29:22.349Z,9.762860
2022-08-12T11:30:31.081Z,9.762881
2022-08-12T11:32:02.451Z,9.762895
2022-08-12T11:32:22.454Z,9.762895
2022-08-12T11:35:20.110Z,9.762895
2022-08-12T11:35:23.065Z,9.762895
2022-08-12T11:36:22.713Z,9.762895
2022-08-12T11:37:26.407Z,9.762895
2022-08-12T11:38:22.455Z,9.762895
2022-08-12T11:40:23.556Z,9.762630
2022-08-12T11:41:31.363Z,9.762746
2022-08-12T11:43:18.987Z,9.762746
2022-08-12T11:43:26.212Z,9.762746
2022-08-12T11:44:35.278Z,9.762746
2022-08-12T11:47:19.723Z,9.762746
2022-08-12T11:47:21.203Z,9.762746
2022-08-12T11:48:26.915Z,9.762367
2022-08-12T11:49:30.764Z,9.762463
2022-08-12T11:50:23.863Z,9.762463
2022-08-12T11:51:22.195Z,9.762463
2022-08-12T11:52:54.918Z,9.762463
2022-08-12T11:53:58.282Z,9.762463
2022-08-12T11:54:22.184Z,9.762463
2022-08-12T11:55:23.173Z,9.762463
2022-08-12T11:56:21.330Z,9.762463
2022-08-12T11:58:09.538Z,9.762463
2022-08-12T12:00:16.838Z,9.762463
2022-08-12T12:02:00.955Z,9.762463
2022-08-12T12:02:04.803Z,9.762463
2022-08-12T12:02:25.983Z,9.762463
2022-08-12T12:03:23.138Z,9.762463
2022-08-12T12:04:28.991Z,9.762463
2022-08-12T12:05:22.128Z,9.761985
2022-08-12T12:06:22.537Z,9.761985
2022-08-12T12:07:21.253Z,9.761985
2022-08-12T12:08:37.393Z,9.761977
2022-08-12T12:09:24.678Z,9.762240
2022-08-12T12:10:29.228Z,9.762311
2022-08-12T12:11:23.128Z,9.762311
2022-08-12T12:12:21.441Z,9.762311
2022-08-12T12:13:23.287Z,9.762662
2022-08-12T12:14:37.801Z,9.762662
2022-08-12T12:15:24.666Z,9.762662
2022-08-12T12:16:21.013Z,9.763069
2022-08-12T12:17:21.000Z,9.762760
2022-08-12T12:18:22.478Z,9.762770
2022-08-12T12:19:21.977Z,9.763362
2022-08-12T12:20:20.963Z,9.763170
2022-08-12T12:21:47.589Z,9.762959
2022-08-12T12:22:26.783Z,9.763195
2022-08-12T12:23:29.157Z,9.763012
2022-08-12T12:24:22.529Z,9.762694
2022-08-12T12:25:20.923Z,9.762788
2022-08-12T12:26:35.259Z,9.762788
2022-08-12T12:27:59.305Z,9.762786
2022-08-12T12:28:38.143Z,9.762867
2022-08-12T12:30:20.000Z,9.763775
2022-08-12T12:30:37.471Z,9.763775
2022-08-12T12:32:11.622Z,9.763775
2022-08-12T12:32:29.342Z,9.762796
2022-08-12T12:33:21.892Z,9.762870
2022-08-12T12:34:30.169Z,9.762886
2022-08-12T12:36:06.473Z,9.762846
2022-08-12T12:36:29.770Z,9.762853
2022-08-12T12:38:03.308Z,9.762901
2022-08-12T12:38:25.170Z,9.762795
2022-08-12T12:39:21.873Z,9.762786
2022-08-12T12:40:21.230Z,9.762712
2022-08-12T12:41:20.759Z,9.762658
2022-08-12T12:42:42.889Z,9.762577
2022-08-12T12:43:28.399Z,9.762558
2022-08-12T12:44:26.002Z,9.762973
2022-08-12T12:45:26.041Z,9.762510
2022-08-12T12:46:20.772Z,9.762329
2022-08-12T12:47:47.693Z,9.762269
2022-08-12T12:48:33.258Z,9.762127
2022-08-12T16:40:15.539Z,9.762731
2022-08-12T16:41:15.547Z,9.762924
2022-08-12T16:42:15.570Z,9.764385
2022-08-12T16:43:15.519Z,9.763249
2022-08-12T16:44:19.496Z,9.762562
2022-08-12T16:45:15.525Z,9.762614
2022-08-12T16:46:31.165Z,9.762647
2022-08-12T16:47:16.503Z,9.762687
2022-08-12T16:48:33.703Z,9.762718
2022-08-12T16:49:16.453Z,9.762724
2022-08-12T16:50:15.445Z,9.762670
2022-08-12T16:51:15.455Z,9.762626
2022-08-12T16:52:16.405Z,9.762635
2022-08-12T16:53:15.437Z,9.762629
2022-08-12T16:54:16.479Z,9.762586
2022-08-12T16:55:15.412Z,9.762542
2022-08-12T16:56:15.808Z,9.762646
2022-08-12T16:57:15.407Z,9.762639
2022-08-12T16:58:28.454Z,9.762641
2022-08-12T16:59:19.792Z,9.762631
2022-08-12T17:00:15.383Z,9.762644
2022-08-12T17:01:15.454Z,9.762673
2022-08-12T17:02:31.963Z,9.762653
2022-08-12T17:03:18.434Z,9.762622
2022-08-12T17:04:16.330Z,9.762634
2022-08-12T17:05:16.147Z,9.762670
2022-08-12T17:06:19.656Z,9.762654
2022-08-12T17:07:16.320Z,9.762625
2022-08-12T17:08:15.541Z,9.762687
2022-08-12T17:09:17.693Z,9.762746
2022-08-12T17:10:18.353Z,9.762691
2022-08-12T17:11:18.107Z,9.762760
2022-08-12T17:12:15.253Z,9.762747
2022-08-12T17:13:15.266Z,9.762727
2022-08-12T17:14:15.243Z,9.762734
2022-08-12T17:15:50.537Z,9.762710
2022-08-12T17:16:17.973Z,9.762660
2022-08-12T17:17:26.058Z,9.762616
2022-08-12T17:18:43.341Z,9.762662
2022-08-12T17:19:16.240Z,9.762666
2022-08-12T17:20:36.087Z,9.762649
2022-08-12T17:21:17.538Z,9.762587
2022-08-12T17:22:15.233Z,9.762672
2022-08-12T17:23:15.193Z,9.762793
2022-08-12T17:24:15.809Z,9.762693
2022-08-12T17:25:15.142Z,9.762664
2022-08-12T17:26:15.146Z,9.762696
2022-08-12T17:27:16.330Z,9.762878
2022-08-12T17:28:16.669Z,9.762635
2022-08-12T17:29:16.807Z,9.762794
2022-08-12T17:30:15.099Z,9.762766
2022-08-12T17:31:15.097Z,9.762732
2022-08-12T17:32:16.098Z,9.762789
2022-08-12T17:33:17.026Z,9.762762
2022-08-12T17:34:17.285Z,9.762630
2022-08-12T17:35:15.070Z,9.762710
2022-08-12T17:36:15.050Z,9.762641
2022-08-12T17:37:15.039Z,9.762723
2022-08-12T17:38:15.059Z,9.762693
2022-08-12T17:39:15.058Z,9.762484
2022-08-12T17:40:34.547Z,9.762684
2022-08-12T17:41:23.142Z,9.762623
2022-08-12T17:42:32.575Z,9.762670
2022-08-12T17:43:56.048Z,9.762677
2022-08-12T17:44:16.001Z,9.762741
2022-08-12T17:45:17.942Z,9.762760
2022-08-12T17:46:23.983Z,9.762663
2022-08-12T17:47:15.963Z,9.762645
2022-08-12T17:48:17.566Z,9.762623
2022-08-12T17:49:19.474Z,9.762568
2022-08-12T17:50:15.953Z,9.762529
2022-08-12T17:51:15.539Z,9.762011
2022-08-12T17:52:14.914Z,9.762339
2022-08-12T17:53:14.908Z,9.762784
2022-08-12T17:54:14.888Z,9.762758
2022-08-12T17:55:39.885Z,9.762662
2022-08-12T17:56:15.879Z,9.762486
2022-08-12T17:57:16.645Z,9.762695
2022-08-12T17:58:14.851Z,9.764650
2022-08-12T17:59:14.860Z,9.763147
2022-08-12T18:00:15.846Z,9.762883
2022-08-12T18:01:14.842Z,9.762832
2022-08-12T18:02:14.819Z,9.762568
2022-08-12T18:03:14.816Z,9.762473
2022-08-12T18:04:23.028Z,9.762701
2022-08-12T18:05:15.793Z,9.762639
2022-08-12T18:06:15.769Z,9.762863
2022-08-12T18:07:15.754Z,9.762773
2022-08-12T18:08:14.771Z,9.762702
2022-08-12T18:09:14.745Z,9.762742
2022-08-12T18:10:14.731Z,9.762908
2022-08-12T18:11:49.955Z,9.762828
2022-08-12T18:12:15.740Z,9.762795
2022-08-12T18:13:40.189Z,9.762548
2022-08-12T18:14:15.819Z,9.762731
2022-08-12T18:15:26.459Z,9.762818
2022-08-12T18:16:15.712Z,9.762352
2022-08-12T18:17:15.688Z,9.761845
2022-08-12T18:18:17.126Z,9.762877
2022-08-12T18:19:14.654Z,9.762624
2022-08-12T18:20:15.626Z,9.762643
2022-08-12T18:21:14.624Z,9.762810
2022-08-12T18:22:14.635Z,9.762790
2022-08-12T18:23:14.623Z,9.763020
2022-08-12T18:24:22.515Z,9.762818
2022-08-12T18:26:12.603Z,9.762548
2022-08-12T18:26:17.722Z,9.762540
2022-08-12T18:27:29.840Z,9.762710
2022-08-12T18:28:19.410Z,9.762963
2022-08-12T18:29:15.554Z,9.762999
2022-08-12T18:30:20.831Z,9.762877
2022-08-12T18:31:15.567Z,9.762855
2022-08-12T18:32:43.831Z,9.762617
2022-08-12T18:33:16.557Z,9.762602
2022-08-12T18:34:14.500Z,9.762581
2022-08-12T18:35:14.494Z,9.762790
2022-08-12T18:36:14.462Z,9.762628
2022-08-12T18:37:36.304Z,9.762914
2022-08-12T18:38:16.555Z,9.762869
2022-08-12T18:39:19.013Z,9.762831
2022-08-12T18:40:16.449Z,9.762672
2022-08-12T18:41:20.841Z,9.762793
2022-08-12T18:42:15.441Z,9.762634
2022-08-12T18:43:15.186Z,9.762782
2022-08-12T18:44:14.413Z,9.762733
2022-08-12T18:45:14.402Z,9.762683
2022-08-12T18:46:14.384Z,9.762898
2022-08-12T18:47:14.362Z,9.762248
2022-08-12T18:48:14.404Z,9.762549
2022-08-12T18:49:18.010Z,9.762646
2022-08-12T18:50:15.379Z,9.762790
2022-08-12T18:51:22.043Z,9.762785
2022-08-12T18:52:15.359Z,9.762781
2022-08-12T18:54:04.893Z,9.762707
2022-08-12T18:54:21.762Z,9.762177
2022-08-12T18:55:15.309Z,9.762424
2022-08-12T18:56:33.432Z,9.762426
2022-08-12T18:57:16.800Z,9.762168
2022-08-12T18:58:15.299Z,9.761638
2022-08-12T18:59:15.283Z,9.762773
2022-08-12T19:00:15.288Z,9.762756
2022-08-12T19:02:19.862Z,9.762806
2022-08-12T19:02:21.583Z,9.762833
2022-08-12T19:03:39.056Z,9.762823
2022-08-12T19:04:15.232Z,9.762754
2022-08-12T19:05:14.221Z,9.762822
2022-08-12T19:06:16.177Z,9.762789
2022-08-12T19:07:15.186Z,9.762793
2022-08-12T19:08:14.183Z,9.762763
2022-08-12T19:09:14.181Z,9.762766
2022-08-12T19:10:14.160Z,9.762794
2022-08-12T19:11:15.003Z,9.762742
2022-08-12T19:12:20.104Z,9.762738
2022-08-12T19:13:23.879Z,9.762801
2022-08-12T19:14:16.176Z,9.762795
2022-08-12T19:15:14.127Z,9.762824
2022-08-12T19:16:14.111Z,9.762836
2022-08-12T19:17:14.091Z,9.762828
2022-08-12T19:18:14.084Z,9.762812
2022-08-12T19:19:14.096Z,9.762798
2022-08-12T19:20:14.059Z,9.762809
2022-08-12T19:21:15.777Z,9.762834
2022-08-12T19:22:14.053Z,9.762893
2022-08-12T19:23:16.666Z,9.762937
2022-08-12T19:24:15.053Z,9.762956
2022-08-12T19:25:13.995Z,9.762858
2022-08-12T19:26:14.004Z,9.762817
2022-08-12T19:27:15.371Z,9.762807
2022-08-12T19:28:14.032Z,9.762782
2022-08-12T19:29:13.977Z,9.762815
2022-08-12T19:30:13.983Z,9.762816
2022-08-12T19:31:13.997Z,9.762824
2022-08-12T19:32:13.944Z,9.762802
2022-08-12T19:33:13.954Z,9.762833
2022-08-12T19:34:47.095Z,9.762815
2022-08-12T19:36:25.162Z,9.762745
2022-08-12T19:37:15.909Z,9.762733
2022-08-12T19:38:17.719Z,9.762718
2022-08-12T19:39:15.218Z,9.762783
2022-08-12T19:40:31.022Z,9.762765
2022-08-12T19:41:14.856Z,9.762793
2022-08-12T19:42:14.854Z,9.762938
2022-08-12T19:43:19.635Z,9.762917
2022-08-12T19:44:18.632Z,9.762791
2022-08-12T19:45:15.848Z,9.762768
2022-08-12T19:46:13.810Z,9.762767
2022-08-12T19:47:16.336Z,9.762788
2022-08-12T19:48:16.837Z,9.762840
2022-08-12T19:49:13.808Z,9.762858
2022-08-12T19:50:13.788Z,9.762875
2022-08-12T19:51:24.447Z,9.762816
2022-08-12T19:52:20.930Z,9.762671
2022-08-12T19:53:14.792Z,9.762750
2022-08-12T19:54:13.766Z,9.762842
2022-08-12T19:55:19.835Z,9.762839
2022-08-12T19:56:15.722Z,9.762792
2022-08-12T19:57:13.727Z,9.762801
2022-08-12T19:58:18.163Z,9.762753
2022-08-12T19:59:13.694Z,9.762800
2022-08-12T20:00:14.676Z,9.762749
2022-08-12T20:01:13.671Z,9.763053
2022-08-12T20:02:13.650Z,9.762890
2022-08-12T20:03:38.106Z,9.762745
2022-08-12T20:04:14.676Z,9.762821
2022-08-12T20:06:07.185Z,9.762858
2022-08-12T20:06:21.895Z,9.762817
2022-08-12T20:07:23.823Z,9.762848
2022-08-12T20:08:20.650Z,9.762876
2022-08-12T20:09:14.595Z,9.762847
2022-08-12T20:10:13.568Z,9.762690
2022-08-12T20:12:14.635Z,9.762790
2022-08-12T20:12:19.397Z,9.762609
2022-08-12T20:13:18.108Z,9.762746
2022-08-12T20:14:13.580Z,9.762736
2022-08-12T20:15:13.561Z,9.762600
2022-08-12T20:16:38.600Z,9.762473
2022-08-12T20:17:15.521Z,9.761964
2022-08-12T20:18:43.714Z,9.762738
2022-08-12T20:19:14.528Z,9.762646
2022-08-12T20:20:19.594Z,9.762771
2022-08-12T20:21:15.947Z,9.762974